首页
METAR-TAF:

METAR-TAF

机场 :

德梅因, 艾奥瓦州, 美国

纬度: 41-32-16N, 经度: 093-39-58W, 海拔: 291米

当前天气观测

该预报发布于58分钟前的07:54 UTC
风速13节,风向西北,有时为23节阵风
温度 3°C
湿度 87%
气压 1016 hPa
能見度: 16.1公里
阴天层高于500英尺

METAR: KDSM 030754Z 31013G23KT 10SM OVC005 03/01 A3001 RMK AO2 PK WND 31026/0703 SLP164 T00280011

时间: 03:52 (08:52 UTC)

预报

该预报发布于3小时和32分钟前的05:20 UTC
预报有效从03日的 06点(UTC)到 04日的 06点(UTC)
风速8节,风向东南
能見度: 10公里
多云层高于7000英尺
从 03日的 0800点(UTC)
风速9节,风向西北
能見度: 9.7公里
阴天层高于1000英尺
小阵雨
从 03日的 1300点(UTC)
风速12节,风向北转西北
能見度: 4.8公里
阴天层高于800英尺
从 03日的 2300点(UTC)
风速12节,风向北转西北
能見度: 8.0公里
阴天层高于2000英尺
小雨
从 04日的 0100点(UTC)
风速11节,风向
能見度: 10公里
多云层高于4000英尺

TAF: KDSM 030520Z 0306/0406 14008KT P6SM BKN070 FM030800 32009KT 6SM -SHRA OVC010 FM031300 33012KT 3SM RA OVC008 FM032300 34012KT 5SM -RA OVC020 FM040100 35011KT P6SM BKN040

超过4000个机场的气象观测和天气预报(METAR&TAF报告)。

可查询的气象台以黄色和红色小点在地图上表示。

将鼠标移到小点上方,可查看气象台名称。

然后点击查看天气观测和预报。

如需切换地图:点击带黑十字的绿色按钮放大地图;点击带横线的绿色按钮缩小地图;或者点击绿色箭头查看邻近地区的地图。


METAR-TAF: